Check out our new PWSWeather beta!
PWSweather.com
Personal Weather Stations
Station Observations

SkegnessGB

Lat: 53.147585, Lon: 0.345774

Elevation: 18

Station Type: Fine Offset WH3080

http://www.skegnessweather.info/

High Low Average
Temperature 44.8°F7.1°C 37.0°F2.8°C 41.4°F5.2°C
Dew Point 38.9°F3.8°C 30.0°F-1.1°C 35.5°F1.9°C
Winds 20.9 mph 33.6 kmh 3.4 mph 5.5 kmh 11.0 mph SSW17.7 kmh SSW
Wind Gusts 22.6 mph36.4 kmh 4.2 mph6.8 kmh 12.0 mph19.3 kmh
Humidity 89% 69% 80%
Pressure 29.39 in995.3 mb 28.96 in980.7 mb -
Precipitation 0.14 in3.6 mm - -
Hour Temp Dew Point Humidity Winds Wind Gusts Pressure Precip Precip Rate Daily Precip Total
12:00 AM 41.9°F5.5°C 37.4°F3.0°C 84% 16.6 mph S26.7 kmh S 15.0 mph24.1 kmh 29.01 in982.4 mb 0.00 in0.0 mm 0.00 in0.0 mm 0.00 in0.0 mm
12:10 AM 41.9°F5.5°C 37.7°F3.2°C 85% 14.4 mph SW23.2 kmh SW 13.3 mph21.4 kmh 29.00 in982.1 mb 0.00 in0.0 mm 0.00 in0.0 mm 0.00 in0.0 mm
12:20 AM 41.9°F5.5°C 37.7°F3.2°C 85% 13.9 mph S22.4 kmh S 16.0 mph25.7 kmh 29.00 in982.1 mb 0.00 in0.0 mm 0.00 in0.0 mm 0.00 in0.0 mm
12:30 AM 42.1°F5.6°C 38.2°F3.4°C 86% 10.9 mph S17.5 kmh S 11.8 mph19.0 kmh 28.99 in981.7 mb 0.01 in0.3 mm 0.06 in1.5 mm 0.01 in0.3 mm
12:40 AM 42.3°F5.7°C 38.4°F3.6°C 86% 14.7 mph S23.7 kmh S 15.0 mph24.1 kmh 29.00 in982.1 mb 0.04 in1.0 mm 0.18 in4.6 mm 0.04 in1.0 mm
12:50 AM 42.1°F5.6°C 38.5°F3.6°C 87% 11.8 mph SSE19.0 kmh SSE 16.7 mph26.9 kmh 28.99 in981.7 mb 0.06 in1.5 mm 0.12 in3.0 mm 0.07 in1.8 mm
01:00 AM 41.9°F5.5°C 38.3°F3.5°C 87% 9.9 mph SW15.9 kmh SW 9.1 mph14.6 kmh 28.99 in981.7 mb 0.07 in1.8 mm 0.01 in0.3 mm 0.07 in1.8 mm
01:10 AM 41.9°F5.5°C 38.6°F3.7°C 88% 8.4 mph SSE13.5 kmh SSE 10.1 mph16.3 kmh 28.99 in981.7 mb 0.08 in2.0 mm 0.06 in1.5 mm 0.08 in2.0 mm
01:20 AM 41.4°F5.2°C 38.1°F3.4°C 88% 10.6 mph WSW17.1 kmh WSW 12.5 mph20.1 kmh 28.99 in981.7 mb 0.13 in3.3 mm 0.30 in7.6 mm 0.13 in3.3 mm
01:30 AM 41.7°F5.4°C 38.4°F3.6°C 88% 10.0 mph S16.1 kmh S 10.1 mph16.3 kmh 28.98 in981.4 mb 0.12 in3.0 mm 0.00 in0.0 mm 0.13 in3.3 mm
01:40 AM 41.9°F5.5°C 38.6°F3.7°C 88% 10.1 mph SW16.3 kmh SW 10.1 mph16.3 kmh 28.98 in981.4 mb 0.09 in2.3 mm 0.00 in0.0 mm 0.13 in3.3 mm
01:50 AM 41.9°F5.5°C 38.9°F3.8°C 89% 6.5 mph SSW10.5 kmh SSW 8.4 mph13.5 kmh 28.96 in980.7 mb 0.06 in1.5 mm 0.00 in0.0 mm 0.13 in3.3 mm
02:00 AM 41.7°F5.4°C 38.7°F3.7°C 89% 7.2 mph SW11.6 kmh SW 8.4 mph13.5 kmh 28.97 in981.0 mb 0.06 in1.5 mm 0.00 in0.0 mm 0.13 in3.3 mm
02:10 AM 41.7°F5.4°C 38.7°F3.7°C 89% 9.1 mph SSE14.6 kmh SSE 8.4 mph13.5 kmh 28.97 in981.0 mb 0.05 in1.3 mm 0.00 in0.0 mm 0.13 in3.3 mm
02:20 AM 41.7°F5.4°C 38.4°F3.6°C 88% 10.1 mph SSW16.3 kmh SSW 12.5 mph20.1 kmh 28.97 in981.0 mb 0.00 in0.0 mm 0.00 in0.0 mm 0.13 in3.3 mm
02:30 AM 41.7°F5.4°C 38.4°F3.6°C 88% 8.1 mph S13.0 kmh S 12.5 mph20.1 kmh 28.97 in981.0 mb 0.00 in0.0 mm 0.00 in0.0 mm 0.13 in3.3 mm
02:40 AM 41.7°F5.4°C 38.1°F3.4°C 87% 10.6 mph S17.1 kmh S 12.5 mph20.1 kmh 28.97 in981.0 mb 0.00 in0.0 mm 0.00 in0.0 mm 0.13 in3.3 mm
02:50 AM 41.7°F5.4°C 38.1°F3.4°C 87% 11.1 mph SW17.9 kmh SW 10.8 mph17.4 kmh 28.98 in981.4 mb 0.00 in0.0 mm 0.00 in0.0 mm 0.13 in3.3 mm
03:00 AM 41.5°F5.3°C 38.0°F3.3°C 87% 12.1 mph W19.5 kmh W 17.5 mph28.2 kmh 28.97 in981.0 mb 0.00 in0.0 mm 0.00 in0.0 mm 0.13 in3.3 mm
03:10 AM 41.5°F5.3°C 37.7°F3.2°C 86% 11.9 mph W19.2 kmh W 10.8 mph17.4 kmh 28.98 in981.4 mb 0.00 in0.0 mm 0.00 in0.0 mm 0.13 in3.3 mm
03:20 AM 41.4°F5.2°C 37.2°F2.9°C 85% 12.7 mph SSW20.4 kmh SSW 15.0 mph24.1 kmh 28.98 in981.4 mb 0.00 in0.0 mm 0.00 in0.0 mm 0.13 in3.3 mm
03:30 AM 41.4°F5.2°C 36.6°F2.6°C 83% 13.4 mph SSW21.6 kmh SSW 16.7 mph26.9 kmh 28.98 in981.4 mb 0.00 in0.0 mm 0.00 in0.0 mm 0.13 in3.3 mm
03:40 AM 41.2°F5.1°C 36.1°F2.3°C 82% 12.1 mph S19.5 kmh S 12.5 mph20.1 kmh 28.98 in981.4 mb 0.00 in0.0 mm 0.00 in0.0 mm 0.13 in3.3 mm
03:50 AM 41.0°F5.0°C 35.6°F2.0°C 81% 15.2 mph S24.5 kmh S 17.5 mph28.2 kmh 28.99 in981.7 mb 0.00 in0.0 mm 0.00 in0.0 mm 0.13 in3.3 mm
04:00 AM 40.8°F4.9°C 35.1°F1.7°C 80% 13.9 mph WSW22.4 kmh WSW 16.0 mph25.7 kmh 28.99 in981.7 mb 0.00 in0.0 mm 0.00 in0.0 mm 0.13 in3.3 mm
04:10 AM 40.5°F4.7°C 34.5°F1.4°C 79% 15.3 mph W24.6 kmh W 19.2 mph30.9 kmh 29.00 in982.1 mb 0.00 in0.0 mm 0.00 in0.0 mm 0.13 in3.3 mm
04:20 AM 39.7°F4.3°C 33.8°F1.0°C 79% 14.9 mph SW24.0 kmh SW 16.7 mph26.9 kmh 29.02 in982.7 mb 0.00 in0.0 mm 0.00 in0.0 mm 0.13 in3.3 mm
04:30 AM 39.7°F4.3°C 34.1°F1.2°C 80% 17.5 mph S28.2 kmh S 19.2 mph30.9 kmh 29.02 in982.7 mb 0.00 in0.0 mm 0.00 in0.0 mm 0.13 in3.3 mm
04:40 AM 39.4°F4.1°C 33.4°F0.8°C 79% 14.5 mph SSW23.3 kmh SSW 13.3 mph21.4 kmh 29.03 in983.1 mb 0.00 in0.0 mm 0.00 in0.0 mm 0.13 in3.3 mm
04:50 AM 39.0°F3.9°C 33.1°F0.6°C 79% 12.4 mph SW20.0 kmh SW 13.3 mph21.4 kmh 29.03 in983.1 mb 0.00 in0.0 mm 0.00 in0.0 mm 0.13 in3.3 mm
05:00 AM 38.8°F3.8°C 32.9°F0.5°C 79% 14.2 mph S22.9 kmh S 14.3 mph23.0 kmh 29.04 in983.4 mb 0.00 in0.0 mm 0.00 in0.0 mm 0.13 in3.3 mm
05:10 AM 38.5°F3.6°C 32.2°F0.1°C 78% 12.4 mph S20.0 kmh S 14.3 mph23.0 kmh 29.04 in983.4 mb 0.00 in0.0 mm 0.00 in0.0 mm 0.13 in3.3 mm
05:20 AM 38.3°F3.5°C 32.0°F0.0°C 78% 14.2 mph SW22.9 kmh SW 12.5 mph20.1 kmh 29.05 in983.7 mb 0.00 in0.0 mm 0.00 in0.0 mm 0.13 in3.3 mm
05:30 AM 38.3°F3.5°C 31.7°F-0.2°C 77% 14.6 mph SW23.5 kmh SW 14.3 mph23.0 kmh 29.05 in983.7 mb 0.00 in0.0 mm 0.00 in0.0 mm 0.13 in3.3 mm
05:40 AM 38.1°F3.4°C 31.5°F-0.3°C 77% 13.1 mph SW21.1 kmh SW 12.5 mph20.1 kmh 29.06 in984.1 mb 0.00 in0.0 mm 0.00 in0.0 mm 0.13 in3.3 mm
05:50 AM 38.1°F3.4°C 31.5°F-0.3°C 77% 13.6 mph SW21.9 kmh SW 15.0 mph24.1 kmh 29.07 in984.4 mb 0.00 in0.0 mm 0.00 in0.0 mm 0.13 in3.3 mm
06:00 AM 38.1°F3.4°C 31.2°F-0.4°C 76% 14.3 mph SE23.0 kmh SE 14.3 mph23.0 kmh 29.08 in984.8 mb 0.00 in0.0 mm 0.00 in0.0 mm 0.13 in3.3 mm
06:10 AM 38.1°F3.4°C 31.2°F-0.4°C 76% 12.7 mph SW20.4 kmh SW 13.3 mph21.4 kmh 29.08 in984.8 mb 0.00 in0.0 mm 0.00 in0.0 mm 0.13 in3.3 mm
06:20 AM 37.9°F3.3°C 31.0°F-0.6°C 76% 11.3 mph SW18.2 kmh SW 12.5 mph20.1 kmh 29.09 in985.1 mb 0.00 in0.0 mm 0.00 in0.0 mm 0.13 in3.3 mm
06:30 AM 37.8°F3.2°C 30.9°F-0.6°C 76% 9.9 mph SW15.9 kmh SW 13.3 mph21.4 kmh 29.10 in985.4 mb 0.00 in0.0 mm 0.00 in0.0 mm 0.13 in3.3 mm
06:40 AM 37.8°F3.2°C 30.9°F-0.6°C 76% 10.6 mph SE17.1 kmh SE 10.8 mph17.4 kmh 29.11 in985.8 mb 0.00 in0.0 mm 0.00 in0.0 mm 0.13 in3.3 mm
06:50 AM 37.9°F3.3°C 31.0°F-0.6°C 76% 10.0 mph SW16.1 kmh SW 10.8 mph17.4 kmh 29.11 in985.8 mb 0.00 in0.0 mm 0.00 in0.0 mm 0.13 in3.3 mm
07:00 AM 37.9°F3.3°C 31.0°F-0.6°C 76% 11.3 mph SW18.2 kmh SW 10.8 mph17.4 kmh 29.12 in986.1 mb 0.00 in0.0 mm 0.00 in0.0 mm 0.13 in3.3 mm
07:10 AM 37.9°F3.3°C 30.7°F-0.7°C 75% 9.5 mph W15.3 kmh W 7.6 mph12.2 kmh 29.13 in986.5 mb 0.00 in0.0 mm 0.00 in0.0 mm 0.13 in3.3 mm
07:20 AM 37.8°F3.2°C 30.5°F-0.8°C 75% 8.5 mph WSW13.7 kmh WSW 10.1 mph16.3 kmh 29.14 in986.8 mb 0.00 in0.0 mm 0.00 in0.0 mm 0.13 in3.3 mm
07:30 AM 37.8°F3.2°C 30.9°F-0.6°C 76% 9.3 mph S15.0 kmh S 10.8 mph17.4 kmh 29.14 in986.8 mb 0.00 in0.0 mm 0.00 in0.0 mm 0.13 in3.3 mm
07:40 AM 37.4°F3.0°C 30.2°F-1.0°C 75% 7.3 mph SSW11.7 kmh SSW 9.1 mph14.6 kmh 29.14 in986.8 mb 0.00 in0.0 mm 0.00 in0.0 mm 0.13 in3.3 mm
07:50 AM 37.2°F2.9°C 30.0°F-1.1°C 75% 5.9 mph S9.5 kmh S 7.6 mph12.2 kmh 29.15 in987.1 mb 0.00 in0.0 mm 0.00 in0.0 mm 0.13 in3.3 mm
08:00 AM 37.0°F2.8°C 30.2°F-1.0°C 76% 5.9 mph S9.5 kmh S 6.6 mph10.6 kmh 29.16 in987.5 mb 0.00 in0.0 mm 0.00 in0.0 mm 0.13 in3.3 mm
08:10 AM 37.8°F3.2°C 30.9°F-0.6°C 76% 7.9 mph SW12.7 kmh SW 9.1 mph14.6 kmh 29.17 in987.8 mb 0.00 in0.0 mm 0.00 in0.0 mm 0.13 in3.3 mm
08:20 AM 37.9°F3.3°C 31.0°F-0.6°C 76% 8.2 mph WSW13.2 kmh WSW 10.8 mph17.4 kmh 29.17 in987.8 mb 0.00 in0.0 mm 0.00 in0.0 mm 0.13 in3.3 mm
08:30 AM 38.3°F3.5°C 31.1°F-0.5°C 75% 8.9 mph S14.3 kmh S 10.1 mph16.3 kmh 29.18 in988.1 mb 0.00 in0.0 mm 0.00 in0.0 mm 0.13 in3.3 mm
08:40 AM 38.5°F3.6°C 31.2°F-0.4°C 75% 8.1 mph SSW13.0 kmh SSW 8.4 mph13.5 kmh 29.18 in988.1 mb 0.00 in0.0 mm 0.00 in0.0 mm 0.13 in3.3 mm
08:50 AM 38.7°F3.7°C 31.4°F-0.3°C 75% 11.4 mph SW18.3 kmh SW 10.8 mph17.4 kmh 29.18 in988.1 mb 0.00 in0.0 mm 0.00 in0.0 mm 0.13 in3.3 mm
09:00 AM 38.8°F3.8°C 31.6°F-0.2°C 75% 10.8 mph SW17.4 kmh SW 10.8 mph17.4 kmh 29.19 in988.5 mb 0.00 in0.0 mm 0.00 in0.0 mm 0.13 in3.3 mm
09:10 AM 39.0°F3.9°C 31.8°F-0.1°C 75% 10.5 mph SW16.9 kmh SW 11.8 mph19.0 kmh 29.20 in988.8 mb 0.00 in0.0 mm 0.00 in0.0 mm 0.13 in3.3 mm
09:20 AM 39.2°F4.0°C 32.3°F0.2°C 76% 9.4 mph WNW15.1 kmh WNW 11.8 mph19.0 kmh 29.21 in989.2 mb 0.00 in0.0 mm 0.00 in0.0 mm 0.13 in3.3 mm
09:30 AM 38.7°F3.7°C 31.7°F-0.2°C 76% 9.4 mph WSW15.1 kmh WSW 9.1 mph14.6 kmh 29.21 in989.2 mb 0.00 in0.0 mm 0.00 in0.0 mm 0.13 in3.3 mm
09:40 AM 38.8°F3.8°C 32.6°F0.3°C 78% 9.4 mph SSW15.1 kmh SSW 9.1 mph14.6 kmh 29.23 in989.8 mb 0.00 in0.0 mm 0.00 in0.0 mm 0.13 in3.3 mm
09:50 AM 39.4°F4.1°C 33.4°F0.8°C 79% 10.6 mph SW17.1 kmh SW 10.1 mph16.3 kmh 29.23 in989.8 mb 0.00 in0.0 mm 0.00 in0.0 mm 0.13 in3.3 mm
10:00 AM 39.7°F4.3°C 34.1°F1.2°C 80% 10.8 mph WSW17.4 kmh WSW 12.5 mph20.1 kmh 29.23 in989.8 mb 0.00 in0.0 mm 0.00 in0.0 mm 0.13 in3.3 mm
10:10 AM 40.3°F4.6°C 34.6°F1.4°C 80% 10.9 mph S17.5 kmh S 12.5 mph20.1 kmh 29.24 in990.2 mb 0.00 in0.0 mm 0.00 in0.0 mm 0.13 in3.3 mm
10:20 AM 40.6°F4.8°C 35.0°F1.7°C 80% 11.9 mph SSW19.2 kmh SSW 12.5 mph20.1 kmh 29.23 in989.8 mb 0.00 in0.0 mm 0.00 in0.0 mm 0.13 in3.3 mm
10:30 AM 41.2°F5.1°C 35.5°F1.9°C 80% 11.3 mph SSW18.2 kmh SSW 14.3 mph23.0 kmh 29.24 in990.2 mb 0.00 in0.0 mm 0.00 in0.0 mm 0.13 in3.3 mm
10:40 AM 41.4°F5.2°C 35.3°F1.8°C 79% 10.2 mph SW16.4 kmh SW 12.5 mph20.1 kmh 29.25 in990.5 mb 0.00 in0.0 mm 0.00 in0.0 mm 0.13 in3.3 mm
10:50 AM 41.5°F5.3°C 35.5°F1.9°C 79% 9.8 mph SSW15.8 kmh SSW 14.3 mph23.0 kmh 29.25 in990.5 mb 0.00 in0.0 mm 0.00 in0.0 mm 0.13 in3.3 mm
11:00 AM 41.7°F5.4°C 35.7°F2.1°C 79% 10.3 mph S16.6 kmh S 11.8 mph19.0 kmh 29.26 in990.9 mb 0.00 in0.0 mm 0.00 in0.0 mm 0.13 in3.3 mm
11:10 AM 41.9°F5.5°C 35.9°F2.2°C 79% 8.5 mph WSW13.7 kmh WSW 8.4 mph13.5 kmh 29.26 in990.9 mb 0.00 in0.0 mm 0.00 in0.0 mm 0.13 in3.3 mm
11:20 AM 42.3°F5.7°C 36.2°F2.3°C 79% 10.5 mph SSE16.9 kmh SSE 12.5 mph20.1 kmh 29.27 in991.2 mb 0.00 in0.0 mm 0.00 in0.0 mm 0.13 in3.3 mm
11:30 AM 42.6°F5.9°C 36.6°F2.6°C 79% 12.5 mph SSE20.1 kmh SSE 16.0 mph25.7 kmh 29.27 in991.2 mb 0.00 in0.0 mm 0.00 in0.0 mm 0.13 in3.3 mm
11:40 AM 42.8°F6.0°C 36.1°F2.3°C 77% 10.9 mph S17.5 kmh S 16.0 mph25.7 kmh 29.27 in991.2 mb 0.00 in0.0 mm 0.00 in0.0 mm 0.13 in3.3 mm
11:50 AM 43.2°F6.2°C 36.1°F2.3°C 76% 11.1 mph SW17.9 kmh SW 10.8 mph17.4 kmh 29.27 in991.2 mb 0.00 in0.0 mm 0.00 in0.0 mm 0.13 in3.3 mm
12:00 PM 43.3°F6.3°C 35.9°F2.2°C 75% 10.8 mph SSW17.4 kmh SSW 11.8 mph19.0 kmh 29.27 in991.2 mb 0.00 in0.0 mm 0.00 in0.0 mm 0.13 in3.3 mm
12:10 PM 43.2°F6.2°C 35.4°F1.9°C 74% 10.3 mph S16.6 kmh S 11.8 mph19.0 kmh 29.28 in991.5 mb 0.00 in0.0 mm 0.00 in0.0 mm 0.13 in3.3 mm
12:20 PM 43.2°F6.2°C 35.4°F1.9°C 74% 10.8 mph SW17.4 kmh SW 13.3 mph21.4 kmh 29.28 in991.5 mb 0.00 in0.0 mm 0.00 in0.0 mm 0.13 in3.3 mm
12:30 PM 43.7°F6.5°C 36.0°F2.2°C 74% 11.5 mph SW18.5 kmh SW 12.5 mph20.1 kmh 29.28 in991.5 mb 0.01 in0.3 mm 0.06 in1.5 mm 0.14 in3.6 mm
12:40 PM 44.2°F6.8°C 36.1°F2.3°C 73% 11.9 mph SW19.2 kmh SW 11.8 mph19.0 kmh 29.29 in991.9 mb 0.01 in0.3 mm 0.00 in0.0 mm 0.14 in3.6 mm
12:50 PM 44.6°F7.0°C 35.1°F1.7°C 69% 11.1 mph SW17.9 kmh SW 11.8 mph19.0 kmh 29.29 in991.9 mb 0.01 in0.3 mm 0.00 in0.0 mm 0.14 in3.6 mm
01:00 PM 44.8°F7.1°C 35.2°F1.8°C 69% 10.0 mph NE16.1 kmh NE 10.8 mph17.4 kmh 29.29 in991.9 mb 0.01 in0.3 mm 0.00 in0.0 mm 0.14 in3.6 mm
01:10 PM 44.8°F7.1°C 35.2°F1.8°C 69% 10.3 mph SE16.6 kmh SE 10.1 mph16.3 kmh 29.29 in991.9 mb 0.01 in0.3 mm 0.00 in0.0 mm 0.14 in3.6 mm
01:20 PM 44.4°F6.9°C 36.3°F2.4°C 73% 11.2 mph SW18.0 kmh SW 11.8 mph19.0 kmh 29.30 in992.2 mb 0.01 in0.3 mm 0.00 in0.0 mm 0.14 in3.6 mm
01:30 PM 44.1°F6.7°C 36.6°F2.6°C 75% 9.5 mph SW15.3 kmh SW 10.1 mph16.3 kmh 29.30 in992.2 mb 0.00 in0.0 mm 0.00 in0.0 mm 0.14 in3.6 mm
01:40 PM 44.2°F6.8°C 37.2°F2.9°C 76% 8.5 mph SW13.7 kmh SW 10.1 mph16.3 kmh 29.30 in992.2 mb 0.00 in0.0 mm 0.00 in0.0 mm 0.14 in3.6 mm
01:50 PM 44.4°F6.9°C 38.0°F3.3°C 78% 8.7 mph SW14.0 kmh SW 10.8 mph17.4 kmh 29.31 in992.6 mb 0.00 in0.0 mm 0.00 in0.0 mm 0.14 in3.6 mm
02:00 PM 44.6°F7.0°C 36.1°F2.3°C 72% 9.2 mph SW14.8 kmh SW 10.8 mph17.4 kmh 29.31 in992.6 mb 0.00 in0.0 mm 0.00 in0.0 mm 0.14 in3.6 mm
02:10 PM 44.4°F6.9°C 37.7°F3.2°C 77% 9.9 mph S15.9 kmh S 9.1 mph14.6 kmh 29.31 in992.6 mb 0.00 in0.0 mm 0.00 in0.0 mm 0.14 in3.6 mm
02:20 PM 44.1°F6.7°C 37.0°F2.8°C 76% 8.6 mph S13.8 kmh S 10.1 mph16.3 kmh 29.31 in992.6 mb 0.00 in0.0 mm 0.00 in0.0 mm 0.14 in3.6 mm
02:30 PM 43.9°F6.6°C 36.8°F2.7°C 76% 10.4 mph SW16.7 kmh SW 9.1 mph14.6 kmh 29.32 in992.9 mb 0.00 in0.0 mm 0.00 in0.0 mm 0.14 in3.6 mm
02:40 PM 43.9°F6.6°C 36.8°F2.7°C 76% 10.1 mph S16.3 kmh S 13.3 mph21.4 kmh 29.32 in992.9 mb 0.00 in0.0 mm 0.00 in0.0 mm 0.14 in3.6 mm
02:50 PM 43.9°F6.6°C 36.5°F2.5°C 75% 10.6 mph S17.1 kmh S 13.3 mph21.4 kmh 29.33 in993.2 mb 0.00 in0.0 mm 0.00 in0.0 mm 0.14 in3.6 mm
03:00 PM 43.7°F6.5°C 36.0°F2.2°C 74% 10.3 mph SSW16.6 kmh SSW 10.1 mph16.3 kmh 29.33 in993.2 mb 0.00 in0.0 mm 0.00 in0.0 mm 0.14 in3.6 mm
03:10 PM 43.2°F6.2°C 35.4°F1.9°C 74% 10.3 mph SW16.6 kmh SW 8.4 mph13.5 kmh 29.33 in993.2 mb 0.00 in0.0 mm 0.00 in0.0 mm 0.14 in3.6 mm
03:20 PM 42.8°F6.0°C 35.4°F1.9°C 75% 9.5 mph SW15.3 kmh SW 10.1 mph16.3 kmh 29.33 in993.2 mb 0.00 in0.0 mm 0.00 in0.0 mm 0.14 in3.6 mm
03:30 PM 42.4°F5.8°C 35.4°F1.9°C 76% 7.4 mph WSW11.9 kmh WSW 7.6 mph12.2 kmh 29.34 in993.6 mb 0.00 in0.0 mm 0.00 in0.0 mm 0.14 in3.6 mm
03:40 PM 42.1°F5.6°C 35.4°F1.9°C 77% 7.2 mph SSW11.6 kmh SSW 8.4 mph13.5 kmh 29.34 in993.6 mb 0.00 in0.0 mm 0.00 in0.0 mm 0.14 in3.6 mm
03:50 PM 41.7°F5.4°C 35.4°F1.9°C 78% 7.8 mph S12.6 kmh S 10.1 mph16.3 kmh 29.34 in993.6 mb 0.00 in0.0 mm 0.00 in0.0 mm 0.14 in3.6 mm
04:00 PM 41.5°F5.3°C 35.5°F1.9°C 79% 7.5 mph S12.1 kmh S 8.4 mph13.5 kmh 29.35 in993.9 mb 0.00 in0.0 mm 0.00 in0.0 mm 0.14 in3.6 mm
04:10 PM 41.4°F5.2°C 35.7°F2.1°C 80% 6.3 mph S10.1 kmh S 7.6 mph12.2 kmh 29.34 in993.6 mb 0.00 in0.0 mm 0.00 in0.0 mm 0.14 in3.6 mm
04:20 PM 41.0°F5.0°C 35.3°F1.8°C 80% 6.5 mph SE10.5 kmh SE 8.4 mph13.5 kmh 29.34 in993.6 mb 0.00 in0.0 mm 0.00 in0.0 mm 0.14 in3.6 mm
04:30 PM 41.0°F5.0°C 35.3°F1.8°C 80% 7.3 mph SW11.7 kmh SW 7.6 mph12.2 kmh 29.35 in993.9 mb 0.00 in0.0 mm 0.00 in0.0 mm 0.14 in3.6 mm
04:40 PM 41.0°F5.0°C 35.6°F2.0°C 81% 8.0 mph SW12.9 kmh SW 10.8 mph17.4 kmh 29.36 in994.2 mb 0.00 in0.0 mm 0.00 in0.0 mm 0.14 in3.6 mm
04:50 PM 41.4°F5.2°C 36.0°F2.2°C 81% 8.7 mph S14.0 kmh S 9.1 mph14.6 kmh 29.36 in994.2 mb 0.00 in0.0 mm 0.00 in0.0 mm 0.14 in3.6 mm
05:00 PM 41.5°F5.3°C 36.1°F2.3°C 81% 8.6 mph S13.8 kmh S 9.1 mph14.6 kmh 29.37 in994.6 mb 0.00 in0.0 mm 0.00 in0.0 mm 0.14 in3.6 mm
05:10 PM 41.5°F5.3°C 35.8°F2.1°C 80% 8.3 mph SSE13.4 kmh SSE 7.6 mph12.2 kmh 29.38 in994.9 mb 0.00 in0.0 mm 0.00 in0.0 mm 0.14 in3.6 mm
05:20 PM 41.5°F5.3°C 35.8°F2.1°C 80% 6.9 mph SSW11.1 kmh SSW 9.1 mph14.6 kmh 29.37 in994.6 mb 0.00 in0.0 mm 0.00 in0.0 mm 0.14 in3.6 mm
05:30 PM 41.4°F5.2°C 36.0°F2.2°C 81% 4.2 mph SSW6.8 kmh SSW 4.9 mph7.9 kmh 29.37 in994.6 mb 0.00 in0.0 mm 0.00 in0.0 mm 0.14 in3.6 mm
05:40 PM 40.8°F4.9°C 35.4°F1.9°C 81% 4.0 mph SE6.4 kmh SE 5.9 mph9.5 kmh 29.38 in994.9 mb 0.00 in0.0 mm 0.00 in0.0 mm 0.14 in3.6 mm
05:50 PM 40.5°F4.7°C 35.1°F1.7°C 81% 3.6 mph SW5.8 kmh SW 4.2 mph6.8 kmh 29.38 in994.9 mb 0.00 in0.0 mm 0.00 in0.0 mm 0.14 in3.6 mm
06:00 PM 40.1°F4.5°C 34.7°F1.5°C 81% 3.4 mph SW5.5 kmh SW 4.2 mph6.8 kmh 29.38 in994.9 mb 0.00 in0.0 mm 0.00 in0.0 mm 0.14 in3.6 mm
06:10 PM 40.1°F4.5°C 34.7°F1.5°C 81% 5.5 mph S8.9 kmh S 6.6 mph10.6 kmh 29.37 in994.6 mb 0.00 in0.0 mm 0.00 in0.0 mm 0.14 in3.6 mm
06:20 PM 40.6°F4.8°C 35.6°F2.0°C 82% 6.6 mph SE10.6 kmh SE 6.6 mph10.6 kmh 29.37 in994.6 mb 0.00 in0.0 mm 0.00 in0.0 mm 0.14 in3.6 mm
06:30 PM 41.7°F5.4°C 36.9°F2.7°C 83% 10.1 mph S16.3 kmh S 14.3 mph23.0 kmh 29.37 in994.6 mb 0.00 in0.0 mm 0.00 in0.0 mm 0.14 in3.6 mm
06:40 PM 41.9°F5.5°C 37.1°F2.8°C 83% 7.3 mph SW11.7 kmh SW 11.8 mph19.0 kmh 29.38 in994.9 mb 0.00 in0.0 mm 0.00 in0.0 mm 0.14 in3.6 mm
06:50 PM 41.9°F5.5°C 36.8°F2.7°C 82% 7.7 mph SW12.4 kmh SW 10.8 mph17.4 kmh 29.38 in994.9 mb 0.00 in0.0 mm 0.00 in0.0 mm 0.14 in3.6 mm
07:00 PM 42.4°F5.8°C 37.3°F2.9°C 82% 11.1 mph S17.9 kmh S 13.3 mph21.4 kmh 29.38 in994.9 mb 0.00 in0.0 mm 0.00 in0.0 mm 0.14 in3.6 mm
07:10 PM 42.3°F5.7°C 36.8°F2.7°C 81% 7.3 mph W11.7 kmh W 8.4 mph13.5 kmh 29.39 in995.3 mb 0.00 in0.0 mm 0.00 in0.0 mm 0.14 in3.6 mm
07:20 PM 42.4°F5.8°C 37.0°F2.8°C 81% 12.5 mph S20.1 kmh S 14.3 mph23.0 kmh 29.39 in995.3 mb 0.00 in0.0 mm 0.00 in0.0 mm 0.14 in3.6 mm
07:30 PM 42.3°F5.7°C 36.5°F2.5°C 80% 11.0 mph SSE17.7 kmh SSE 12.5 mph20.1 kmh 29.39 in995.3 mb 0.00 in0.0 mm 0.00 in0.0 mm 0.14 in3.6 mm
07:40 PM 41.9°F5.5°C 36.2°F2.3°C 80% 8.8 mph SE14.2 kmh SE 10.1 mph16.3 kmh 29.39 in995.3 mb 0.00 in0.0 mm 0.00 in0.0 mm 0.14 in3.6 mm
07:50 PM 41.4°F5.2°C 35.7°F2.1°C 80% 7.0 mph SSW11.3 kmh SSW 8.4 mph13.5 kmh 29.39 in995.3 mb 0.00 in0.0 mm 0.00 in0.0 mm 0.14 in3.6 mm
08:00 PM 41.4°F5.2°C 35.7°F2.1°C 80% 8.0 mph S12.9 kmh S 12.5 mph20.1 kmh 29.38 in994.9 mb 0.00 in0.0 mm 0.00 in0.0 mm 0.14 in3.6 mm
08:10 PM 41.7°F5.4°C 36.3°F2.4°C 81% 12.5 mph S20.1 kmh S 12.5 mph20.1 kmh 29.38 in994.9 mb 0.00 in0.0 mm 0.00 in0.0 mm 0.14 in3.6 mm
08:20 PM 42.1°F5.6°C 36.7°F2.6°C 81% 12.6 mph S20.3 kmh S 12.5 mph20.1 kmh 29.38 in994.9 mb 0.00 in0.0 mm 0.00 in0.0 mm 0.14 in3.6 mm
08:30 PM 42.6°F5.9°C 37.2°F2.9°C 81% 16.8 mph SE27.0 kmh SE 18.5 mph29.8 kmh 29.38 in994.9 mb 0.00 in0.0 mm 0.00 in0.0 mm 0.14 in3.6 mm
08:40 PM 42.8°F6.0°C 37.1°F2.8°C 80% 20.9 mph S33.6 kmh S 20.9 mph33.6 kmh 29.38 in994.9 mb 0.00 in0.0 mm 0.00 in0.0 mm 0.14 in3.6 mm
08:50 PM 42.8°F6.0°C 37.1°F2.8°C 80% 17.7 mph S28.5 kmh S 20.9 mph33.6 kmh 29.38 in994.9 mb 0.00 in0.0 mm 0.00 in0.0 mm 0.14 in3.6 mm
09:00 PM 42.8°F6.0°C 37.1°F2.8°C 80% 15.9 mph S25.6 kmh S 16.0 mph25.7 kmh 29.38 in994.9 mb 0.00 in0.0 mm 0.00 in0.0 mm 0.14 in3.6 mm
09:10 PM 43.0°F6.1°C 37.2°F2.9°C 80% 20.2 mph E32.5 kmh E 17.5 mph28.2 kmh 29.38 in994.9 mb 0.00 in0.0 mm 0.00 in0.0 mm 0.14 in3.6 mm
09:20 PM 43.2°F6.2°C 37.4°F3.0°C 80% 18.8 mph S30.3 kmh S 22.6 mph36.4 kmh 29.38 in994.9 mb 0.00 in0.0 mm 0.00 in0.0 mm 0.14 in3.6 mm
09:30 PM 43.2°F6.2°C 37.4°F3.0°C 80% 17.7 mph S28.5 kmh S 17.5 mph28.2 kmh 29.37 in994.6 mb 0.00 in0.0 mm 0.00 in0.0 mm 0.14 in3.6 mm
09:40 PM 43.3°F6.3°C 37.6°F3.1°C 80% 19.5 mph S31.4 kmh S 22.6 mph36.4 kmh 29.38 in994.9 mb 0.00 in0.0 mm 0.00 in0.0 mm 0.14 in3.6 mm
09:50 PM 43.5°F6.4°C 37.8°F3.2°C 80% 18.8 mph S30.3 kmh S 22.6 mph36.4 kmh 29.38 in994.9 mb 0.00 in0.0 mm 0.00 in0.0 mm 0.14 in3.6 mm
10:00 PM 43.3°F6.3°C 37.6°F3.1°C 80% 18.6 mph S29.9 kmh S 16.7 mph26.9 kmh 29.38 in994.9 mb 0.00 in0.0 mm 0.00 in0.0 mm 0.14 in3.6 mm
10:10 PM 43.3°F6.3°C 37.6°F3.1°C 80% 16.6 mph S26.7 kmh S 16.7 mph26.9 kmh 29.37 in994.6 mb 0.00 in0.0 mm 0.00 in0.0 mm 0.14 in3.6 mm
10:20 PM 43.5°F6.4°C 38.1°F3.4°C 81% 17.2 mph SSE27.7 kmh SSE 16.7 mph26.9 kmh 29.37 in994.6 mb 0.00 in0.0 mm 0.00 in0.0 mm 0.14 in3.6 mm
10:30 PM 43.5°F6.4°C 38.1°F3.4°C 81% 17.6 mph S28.3 kmh S 20.2 mph32.5 kmh 29.37 in994.6 mb 0.00 in0.0 mm 0.00 in0.0 mm 0.14 in3.6 mm
10:40 PM 43.5°F6.4°C 38.4°F3.6°C 82% 17.5 mph S28.2 kmh S 18.5 mph29.8 kmh 29.38 in994.9 mb 0.00 in0.0 mm 0.00 in0.0 mm 0.14 in3.6 mm
10:50 PM 43.5°F6.4°C 38.4°F3.6°C 82% 15.3 mph S24.6 kmh S 17.5 mph28.2 kmh 29.38 in994.9 mb 0.00 in0.0 mm 0.00 in0.0 mm 0.14 in3.6 mm
11:00 PM 43.7°F6.5°C 38.6°F3.7°C 82% 16.0 mph SSE25.7 kmh SSE 14.3 mph23.0 kmh 29.38 in994.9 mb 0.00 in0.0 mm 0.00 in0.0 mm 0.14 in3.6 mm
11:10 PM 43.7°F6.5°C 38.6°F3.7°C 82% 15.0 mph S24.1 kmh S 16.0 mph25.7 kmh 29.38 in994.9 mb 0.00 in0.0 mm 0.00 in0.0 mm 0.14 in3.6 mm
11:20 PM 43.7°F6.5°C 38.6°F3.7°C 82% 14.9 mph SSE24.0 kmh SSE 16.0 mph25.7 kmh 29.38 in994.9 mb 0.00 in0.0 mm 0.00 in0.0 mm 0.14 in3.6 mm
11:30 PM 43.7°F6.5°C 38.6°F3.7°C 82% 16.8 mph S27.0 kmh S 16.7 mph26.9 kmh 29.38 in994.9 mb 0.00 in0.0 mm 0.00 in0.0 mm 0.14 in3.6 mm
11:40 PM 43.5°F6.4°C 38.4°F3.6°C 82% 14.9 mph S24.0 kmh S 16.0 mph25.7 kmh 29.38 in994.9 mb 0.00 in0.0 mm 0.00 in0.0 mm 0.14 in3.6 mm
11:50 PM 43.3°F6.3°C 38.2°F3.4°C 82% 15.4 mph S24.8 kmh S 16.7 mph26.9 kmh 29.37 in994.6 mb 0.00 in0.0 mm 0.00 in0.0 mm 0.14 in3.6 mm